sensor_id;sensor_type;location;lat;lon;timestamp;temperature;humidity
23669;DHT22;12011;47.422;15.018;2023-12-14T00:01:41;1.70;99.90
23669;DHT22;12011;47.422;15.018;2023-12-14T00:04:13;1.40;99.90
23669;DHT22;12011;47.422;15.018;2023-12-14T00:06:42;1.50;99.90
23669;DHT22;12011;47.422;15.018;2023-12-14T00:09:22;1.60;99.90
23669;DHT22;12011;47.422;15.018;2023-12-14T00:12:05;1.40;99.90
23669;DHT22;12011;47.422;15.018;2023-12-14T00:14:35;1.40;99.90
23669;DHT22;12011;47.422;15.018;2023-12-14T00:17:08;1.40;99.90
23669;DHT22;12011;47.422;15.018;2023-12-14T00:19:48;1.40;99.90
23669;DHT22;12011;47.422;15.018;2023-12-14T00:22:19;1.50;99.90
23669;DHT22;12011;47.422;15.018;2023-12-14T00:24:54;1.80;99.90
23669;DHT22;12011;47.422;15.018;2023-12-14T00:27:31;1.70;99.90
23669;DHT22;12011;47.422;15.018;2023-12-14T00:30:01;1.50;99.90
23669;DHT22;12011;47.422;15.018;2023-12-14T00:32:39;1.50;99.90
23669;DHT22;12011;47.422;15.018;2023-12-14T00:35:14;1.10;99.90
23669;DHT22;12011;47.422;15.018;2023-12-14T00:37:43;1.50;99.90
23669;DHT22;12011;47.422;15.018;2023-12-14T00:40:16;1.50;99.90
23669;DHT22;12011;47.422;15.018;2023-12-14T00:42:45;1.50;99.90
23669;DHT22;12011;47.422;15.018;2023-12-14T00:45:17;1.50;99.90
23669;DHT22;12011;47.422;15.018;2023-12-14T00:47:52;1.50;99.90
23669;DHT22;12011;47.422;15.018;2023-12-14T00:50:22;0.60;99.90
23669;DHT22;12011;47.422;15.018;2023-12-14T00:52:59;1.60;99.90
23669;DHT22;12011;47.422;15.018;2023-12-14T00:55:36;1.40;99.90
23669;DHT22;12011;47.422;15.018;2023-12-14T00:58:13;1.30;99.90
23669;DHT22;12011;47.422;15.018;2023-12-14T01:00:42;1.40;99.90
23669;DHT22;12011;47.422;15.018;2023-12-14T01:03:28;1.40;99.90
23669;DHT22;12011;47.422;15.018;2023-12-14T01:05:58;1.60;99.90
23669;DHT22;12011;47.422;15.018;2023-12-14T01:08:33;1.50;99.90
23669;DHT22;12011;47.422;15.018;2023-12-14T01:11:12;1.50;99.90
23669;DHT22;12011;47.422;15.018;2023-12-14T01:13:43;1.50;99.90
23669;DHT22;12011;47.422;15.018;2023-12-14T01:16:15;1.50;99.90
23669;DHT22;12011;47.422;15.018;2023-12-14T01:18:44;1.50;99.90
23669;DHT22;12011;47.422;15.018;2023-12-14T01:21:15;1.40;99.90
23669;DHT22;12011;47.422;15.018;2023-12-14T01:23:53;1.40;99.90
23669;DHT22;12011;47.422;15.018;2023-12-14T01:26:29;1.30;99.90
23669;DHT22;12011;47.422;15.018;2023-12-14T01:29:04;1.40;99.90
23669;DHT22;12011;47.422;15.018;2023-12-14T01:31:44;1.30;99.90
23669;DHT22;12011;47.422;15.018;2023-12-14T01:34:18;1.30;99.90
23669;DHT22;12011;47.422;15.018;2023-12-14T01:36:57;1.30;99.90
23669;DHT22;12011;47.422;15.018;2023-12-14T01:39:28;1.40;99.90
23669;DHT22;12011;47.422;15.018;2023-12-14T01:42:11;1.50;99.90
23669;DHT22;12011;47.422;15.018;2023-12-14T01:44:55;1.40;99.90
23669;DHT22;12011;47.422;15.018;2023-12-14T01:47:28;1.40;99.90
23669;DHT22;12011;47.422;15.018;2023-12-14T01:50:02;0.50;99.90
23669;DHT22;12011;47.422;15.018;2023-12-14T01:53:05;1.40;99.90
23669;DHT22;12011;47.422;15.018;2023-12-14T01:55:40;1.40;99.90
23669;DHT22;12011;47.422;15.018;2023-12-14T01:58:55;1.30;99.90
23669;DHT22;12011;47.422;15.018;2023-12-14T02:01:42;0.30;99.90
23669;DHT22;12011;47.422;15.018;2023-12-14T02:05:18;1.40;99.90
23669;DHT22;12011;47.422;15.018;2023-12-14T02:08:04;1.50;99.90
23669;DHT22;12011;47.422;15.018;2023-12-14T02:10:36;1.40;99.90
23669;DHT22;12011;47.422;15.018;2023-12-14T02:13:14;1.50;99.90
23669;DHT22;12011;47.422;15.018;2023-12-14T02:35:17;1.30;99.90
23669;DHT22;12011;47.422;15.018;2023-12-14T02:37:51;1.30;99.90
23669;DHT22;12011;47.422;15.018;2023-12-14T02:40:24;1.50;99.90
23669;DHT22;12011;47.422;15.018;2023-12-14T02:42:57;1.30;99.90
23669;DHT22;12011;47.422;15.018;2023-12-14T02:45:32;1.40;99.90
23669;DHT22;12011;47.422;15.018;2023-12-14T02:48:07;1.30;99.90
23669;DHT22;12011;47.422;15.018;2023-12-14T02:50:43;1.40;99.90
23669;DHT22;12011;47.422;15.018;2023-12-14T02:53:17;1.40;99.90
23669;DHT22;12011;47.422;15.018;2023-12-14T02:55:47;1.40;99.90
23669;DHT22;12011;47.422;15.018;2023-12-14T02:58:23;1.40;99.90
23669;DHT22;12011;47.422;15.018;2023-12-14T03:00:57;1.40;99.90
23669;DHT22;12011;47.422;15.018;2023-12-14T03:03:29;1.40;99.90
23669;DHT22;12011;47.422;15.018;2023-12-14T03:06:03;1.40;99.90
23669;DHT22;12011;47.422;15.018;2023-12-14T03:08:34;1.40;99.90
23669;DHT22;12011;47.422;15.018;2023-12-14T03:11:05;1.40;99.90
23669;DHT22;12011;47.422;15.018;2023-12-14T03:13:36;1.40;99.90
23669;DHT22;12011;47.422;15.018;2023-12-14T03:16:19;1.30;99.90
23669;DHT22;12011;47.422;15.018;2023-12-14T03:18:51;1.30;99.90
23669;DHT22;12011;47.422;15.018;2023-12-14T03:21:33;1.50;99.90
23669;DHT22;12011;47.422;15.018;2023-12-14T03:24:06;1.30;99.90
23669;DHT22;12011;47.422;15.018;2023-12-14T03:26:51;1.40;99.90
23669;DHT22;12011;47.422;15.018;2023-12-14T03:29:29;1.30;99.90
23669;DHT22;12011;47.422;15.018;2023-12-14T03:32:01;1.30;99.90
23669;DHT22;12011;47.422;15.018;2023-12-14T03:34:37;1.30;99.90
23669;DHT22;12011;47.422;15.018;2023-12-14T03:37:14;1.50;99.90
23669;DHT22;12011;47.422;15.018;2023-12-14T03:39:45;1.40;99.90
23669;DHT22;12011;47.422;15.018;2023-12-14T03:42:21;1.30;99.90
23669;DHT22;12011;47.422;15.018;2023-12-14T03:44:56;1.30;99.90
23669;DHT22;12011;47.422;15.018;2023-12-14T03:47:32;1.30;99.90
23669;DHT22;12011;47.422;15.018;2023-12-14T03:50:05;0.60;99.90
23669;DHT22;12011;47.422;15.018;2023-12-14T03:52:56;1.20;99.90
23669;DHT22;12011;47.422;15.018;2023-12-14T03:55:26;1.30;99.90
23669;DHT22;12011;47.422;15.018;2023-12-14T03:57:57;1.20;99.90
23669;DHT22;12011;47.422;15.018;2023-12-14T04:00:27;1.50;99.90
23669;DHT22;12011;47.422;15.018;2023-12-14T04:03:02;1.20;99.90
23669;DHT22;12011;47.422;15.018;2023-12-14T04:05:33;1.20;99.90
23669;DHT22;12011;47.422;15.018;2023-12-14T04:08:10;1.20;99.90
23669;DHT22;12011;47.422;15.018;2023-12-14T04:10:40;1.20;99.90
23669;DHT22;12011;47.422;15.018;2023-12-14T04:13:11;1.20;99.90
23669;DHT22;12011;47.422;15.018;2023-12-14T04:15:46;1.20;99.90
23669;DHT22;12011;47.422;15.018;2023-12-14T04:18:21;1.30;99.90
23669;DHT22;12011;47.422;15.018;2023-12-14T04:20:53;1.30;99.90
23669;DHT22;12011;47.422;15.018;2023-12-14T04:23:35;1.20;99.90
23669;DHT22;12011;47.422;15.018;2023-12-14T04:26:06;1.30;99.90
23669;DHT22;12011;47.422;15.018;2023-12-14T04:28:43;1.30;99.90
23669;DHT22;12011;47.422;15.018;2023-12-14T04:31:19;1.20;99.90
23669;DHT22;12011;47.422;15.018;2023-12-14T04:33:52;1.20;99.90
23669;DHT22;12011;47.422;15.018;2023-12-14T04:36:32;1.40;99.90
23669;DHT22;12011;47.422;15.018;2023-12-14T04:39:13;1.20;99.90
23669;DHT22;12011;47.422;15.018;2023-12-14T04:41:51;1.20;99.90
23669;DHT22;12011;47.422;15.018;2023-12-14T04:44:22;1.20;99.90
23669;DHT22;12011;47.422;15.018;2023-12-14T04:46:55;1.20;99.90
23669;DHT22;12011;47.422;15.018;2023-12-14T04:49:29;1.30;99.90
23669;DHT22;12011;47.422;15.018;2023-12-14T04:52:06;1.30;99.90
23669;DHT22;12011;47.422;15.018;2023-12-14T04:55:04;1.30;99.90
23669;DHT22;12011;47.422;15.018;2023-12-14T04:57:42;1.30;99.90
23669;DHT22;12011;47.422;15.018;2023-12-14T05:00:18;1.40;99.90
23669;DHT22;12011;47.422;15.018;2023-12-14T05:02:48;1.30;99.90
23669;DHT22;12011;47.422;15.018;2023-12-14T05:05:22;1.50;99.90
23669;DHT22;12011;47.422;15.018;2023-12-14T05:07:54;1.30;99.90
23669;DHT22;12011;47.422;15.018;2023-12-14T05:10:29;1.30;99.90
23669;DHT22;12011;47.422;15.018;2023-12-14T05:13:06;1.30;99.90
23669;DHT22;12011;47.422;15.018;2023-12-14T05:15:36;1.50;99.90
23669;DHT22;12011;47.422;15.018;2023-12-14T05:18:13;1.30;99.90
23669;DHT22;12011;47.422;15.018;2023-12-14T05:20:49;1.20;99.90
23669;DHT22;12011;47.422;15.018;2023-12-14T05:23:22;1.20;99.90
23669;DHT22;12011;47.422;15.018;2023-12-14T05:26:03;1.30;99.90
23669;DHT22;12011;47.422;15.018;2023-12-14T05:28:34;1.30;99.90
23669;DHT22;12011;47.422;15.018;2023-12-14T05:31:07;1.30;99.90
23669;DHT22;12011;47.422;15.018;2023-12-14T05:33:37;1.30;99.90
23669;DHT22;12011;47.422;15.018;2023-12-14T05:36:14;1.80;99.90
23669;DHT22;12011;47.422;15.018;2023-12-14T05:38:46;1.30;99.90
23669;DHT22;12011;47.422;15.018;2023-12-14T05:41:21;1.50;99.90
23669;DHT22;12011;47.422;15.018;2023-12-14T05:43:53;1.20;99.90
23669;DHT22;12011;47.422;15.018;2023-12-14T05:46:26;1.20;99.90
23669;DHT22;12011;47.422;15.018;2023-12-14T05:48:57;1.20;99.90
23669;DHT22;12011;47.422;15.018;2023-12-14T05:51:31;1.20;99.90
23669;DHT22;12011;47.422;15.018;2023-12-14T05:54:01;1.20;99.90
23669;DHT22;12011;47.422;15.018;2023-12-14T05:56:33;1.30;99.90
23669;DHT22;12011;47.422;15.018;2023-12-14T05:59:03;1.20;99.90
23669;DHT22;12011;47.422;15.018;2023-12-14T06:01:32;1.10;99.90
23669;DHT22;12011;47.422;15.018;2023-12-14T06:04:03;1.40;99.90
23669;DHT22;12011;47.422;15.018;2023-12-14T06:06:32;1.10;99.90
23669;DHT22;12011;47.422;15.018;2023-12-14T06:09:02;1.20;99.90
23669;DHT22;12011;47.422;15.018;2023-12-14T06:11:35;1.10;99.90
23669;DHT22;12011;47.422;15.018;2023-12-14T06:14:05;1.30;99.90
23669;DHT22;12011;47.422;15.018;2023-12-14T06:16:34;1.50;99.90
23669;DHT22;12011;47.422;15.018;2023-12-14T06:19:04;1.50;99.90
23669;DHT22;12011;47.422;15.018;2023-12-14T06:21:33;1.50;99.90
23669;DHT22;12011;47.422;15.018;2023-12-14T06:24:03;1.50;99.90
23669;DHT22;12011;47.422;15.018;2023-12-14T06:26:40;1.20;99.90
23669;DHT22;12011;47.422;15.018;2023-12-14T06:29:10;1.40;99.90
23669;DHT22;12011;47.422;15.018;2023-12-14T06:31:40;1.30;99.90
23669;DHT22;12011;47.422;15.018;2023-12-14T06:34:10;1.80;99.90
23669;DHT22;12011;47.422;15.018;2023-12-14T06:36:42;1.90;99.90
23669;DHT22;12011;47.422;15.018;2023-12-14T06:39:12;1.60;99.90
23669;DHT22;12011;47.422;15.018;2023-12-14T06:41:45;1.20;99.90
23669;DHT22;12011;47.422;15.018;2023-12-14T06:44:14;1.30;99.90
23669;DHT22;12011;47.422;15.018;2023-12-14T06:46:44;1.90;99.90
23669;DHT22;12011;47.422;15.018;2023-12-14T06:49:13;1.70;99.90
23669;DHT22;12011;47.422;15.018;2023-12-14T06:51:43;1.90;99.90
23669;DHT22;12011;47.422;15.018;2023-12-14T06:54:12;1.60;99.90
23669;DHT22;12011;47.422;15.018;2023-12-14T06:56:44;1.20;99.90
23669;DHT22;12011;47.422;15.018;2023-12-14T06:59:14;1.60;99.90
23669;DHT22;12011;47.422;15.018;2023-12-14T07:01:43;1.60;99.90
23669;DHT22;12011;47.422;15.018;2023-12-14T07:04:12;1.30;99.90
23669;DHT22;12011;47.422;15.018;2023-12-14T07:06:42;1.40;99.90
23669;DHT22;12011;47.422;15.018;2023-12-14T07:09:12;1.50;99.90
23669;DHT22;12011;47.422;15.018;2023-12-14T07:11:44;1.80;99.90
23669;DHT22;12011;47.422;15.018;2023-12-14T07:14:13;1.60;99.90
23669;DHT22;12011;47.422;15.018;2023-12-14T07:16:43;1.90;99.90
23669;DHT22;12011;47.422;15.018;2023-12-14T07:19:13;1.40;99.90
23669;DHT22;12011;47.422;15.018;2023-12-14T07:21:42;1.50;99.90
23669;DHT22;12011;47.422;15.018;2023-12-14T07:24:11;1.40;99.90
23669;DHT22;12011;47.422;15.018;2023-12-14T07:26:43;1.50;99.90
23669;DHT22;12011;47.422;15.018;2023-12-14T07:29:13;1.50;99.90
23669;DHT22;12011;47.422;15.018;2023-12-14T07:31:42;1.90;99.90
23669;DHT22;12011;47.422;15.018;2023-12-14T07:34:12;1.60;99.90
23669;DHT22;12011;47.422;15.018;2023-12-14T07:36:41;1.60;99.90
23669;DHT22;12011;47.422;15.018;2023-12-14T07:39:10;1.80;99.90
23669;DHT22;12011;47.422;15.018;2023-12-14T07:41:40;1.90;99.90
23669;DHT22;12011;47.422;15.018;2023-12-14T07:44:12;1.70;99.90
23669;DHT22;12011;47.422;15.018;2023-12-14T07:46:41;1.80;99.90
23669;DHT22;12011;47.422;15.018;2023-12-14T07:49:11;1.80;99.90
23669;DHT22;12011;47.422;15.018;2023-12-14T07:51:40;1.80;99.90
23669;DHT22;12011;47.422;15.018;2023-12-14T07:54:12;1.90;99.90
23669;DHT22;12011;47.422;15.018;2023-12-14T07:56:41;1.90;99.90
23669;DHT22;12011;47.422;15.018;2023-12-14T07:59:19;1.90;99.90
23669;DHT22;12011;47.422;15.018;2023-12-14T08:01:49;1.90;99.90
23669;DHT22;12011;47.422;15.018;2023-12-14T08:04:19;2.00;99.90
23669;DHT22;12011;47.422;15.018;2023-12-14T08:06:50;2.10;99.90
23669;DHT22;12011;47.422;15.018;2023-12-14T08:09:20;2.10;99.90
23669;DHT22;12011;47.422;15.018;2023-12-14T08:11:51;2.20;99.90
23669;DHT22;12011;47.422;15.018;2023-12-14T08:14:24;2.30;99.90
23669;DHT22;12011;47.422;15.018;2023-12-14T08:16:54;2.40;99.90
23669;DHT22;12011;47.422;15.018;2023-12-14T08:19:27;2.50;99.90
23669;DHT22;12011;47.422;15.018;2023-12-14T08:22:05;2.60;99.90
23669;DHT22;12011;47.422;15.018;2023-12-14T08:24:37;2.70;99.90
23669;DHT22;12011;47.422;15.018;2023-12-14T08:27:06;2.90;99.90
23669;DHT22;12011;47.422;15.018;2023-12-14T08:29:39;3.00;99.90
23669;DHT22;12011;47.422;15.018;2023-12-14T08:32:08;3.20;99.90
23669;DHT22;12011;47.422;15.018;2023-12-14T08:34:38;3.40;99.90
23669;DHT22;12011;47.422;15.018;2023-12-14T08:37:07;3.40;99.90
23669;DHT22;12011;47.422;15.018;2023-12-14T08:42:29;3.60;99.90
23669;DHT22;12011;47.422;15.018;2023-12-14T08:45:01;3.90;99.90
23669;DHT22;12011;47.422;15.018;2023-12-14T08:47:32;4.00;99.90
23669;DHT22;12011;47.422;15.018;2023-12-14T08:50:01;4.20;99.90
23669;DHT22;12011;47.422;15.018;2023-12-14T08:52:30;4.40;99.90
23669;DHT22;12011;47.422;15.018;2023-12-14T08:55:00;4.60;99.90
23669;DHT22;12011;47.422;15.018;2023-12-14T08:57:30;4.70;99.90
23669;DHT22;12011;47.422;15.018;2023-12-14T09:00:18;4.80;99.90
23669;DHT22;12011;47.422;15.018;2023-12-14T09:02:48;4.60;99.90
23669;DHT22;12011;47.422;15.018;2023-12-14T09:05:31;4.70;99.90
23669;DHT22;12011;47.422;15.018;2023-12-14T09:11:37;5.10;99.90
23669;DHT22;12011;47.422;15.018;2023-12-14T09:34:58;5.50;99.90
23669;DHT22;12011;47.422;15.018;2023-12-14T09:37:27;5.60;99.90
23669;DHT22;12011;47.422;15.018;2023-12-14T09:39:56;5.50;99.90
23669;DHT22;12011;47.422;15.018;2023-12-14T09:42:26;5.80;99.90
23669;DHT22;12011;47.422;15.018;2023-12-14T09:44:56;5.80;99.90
23669;DHT22;12011;47.422;15.018;2023-12-14T09:47:26;6.00;99.90
23669;DHT22;12011;47.422;15.018;2023-12-14T09:49:59;6.10;99.90
23669;DHT22;12011;47.422;15.018;2023-12-14T09:52:29;6.20;99.90
23669;DHT22;12011;47.422;15.018;2023-12-14T09:54:59;6.30;99.90
23669;DHT22;12011;47.422;15.018;2023-12-14T09:57:30;6.30;99.90
23669;DHT22;12011;47.422;15.018;2023-12-14T09:59:59;6.20;99.90
23669;DHT22;12011;47.422;15.018;2023-12-14T10:02:35;6.10;99.90
23669;DHT22;12011;47.422;15.018;2023-12-14T10:05:10;6.20;99.90
23669;DHT22;12011;47.422;15.018;2023-12-14T10:07:41;6.20;99.90
23669;DHT22;12011;47.422;15.018;2023-12-14T10:10:13;6.10;99.90
23669;DHT22;12011;47.422;15.018;2023-12-14T10:12:52;6.10;99.90
23669;DHT22;12011;47.422;15.018;2023-12-14T10:15:22;6.20;99.90
23669;DHT22;12011;47.422;15.018;2023-12-14T10:17:52;6.20;99.90
23669;DHT22;12011;47.422;15.018;2023-12-14T10:20:25;6.20;99.90
23669;DHT22;12011;47.422;15.018;2023-12-14T10:22:56;5.90;99.90
23669;DHT22;12011;47.422;15.018;2023-12-14T10:25:25;5.70;99.90
23669;DHT22;12011;47.422;15.018;2023-12-14T10:27:55;5.80;99.90
23669;DHT22;12011;47.422;15.018;2023-12-14T10:30:27;5.70;99.90
23669;DHT22;12011;47.422;15.018;2023-12-14T10:32:57;5.70;99.90
23669;DHT22;12011;47.422;15.018;2023-12-14T10:35:29;6.10;99.90
23669;DHT22;12011;47.422;15.018;2023-12-14T10:38:02;6.20;99.90
23669;DHT22;12011;47.422;15.018;2023-12-14T10:40:33;6.00;99.90
23669;DHT22;12011;47.422;15.018;2023-12-14T10:43:07;6.00;99.90
23669;DHT22;12011;47.422;15.018;2023-12-14T10:45:39;6.10;99.90
23669;DHT22;12011;47.422;15.018;2023-12-14T10:48:12;6.00;99.90
23669;DHT22;12011;47.422;15.018;2023-12-14T10:50:51;5.90;99.90
23669;DHT22;12011;47.422;15.018;2023-12-14T10:53:21;5.60;99.90
23669;DHT22;12011;47.422;15.018;2023-12-14T10:55:54;5.80;99.90
23669;DHT22;12011;47.422;15.018;2023-12-14T10:58:25;5.50;99.90
23669;DHT22;12011;47.422;15.018;2023-12-14T11:00:59;5.50;99.90
23669;DHT22;12011;47.422;15.018;2023-12-14T11:03:33;5.70;99.90
23669;DHT22;12011;47.422;15.018;2023-12-14T11:09:03;6.00;99.90
23669;DHT22;12011;47.422;15.018;2023-12-14T11:11:41;5.90;99.90
23669;DHT22;12011;47.422;15.018;2023-12-14T11:14:12;5.90;99.90
23669;DHT22;12011;47.422;15.018;2023-12-14T11:16:45;5.90;99.90
23669;DHT22;12011;47.422;15.018;2023-12-14T11:19:29;5.80;99.90
23669;DHT22;12011;47.422;15.018;2023-12-14T11:22:26;5.70;99.90
23669;DHT22;12011;47.422;15.018;2023-12-14T11:24:56;5.80;99.90
23669;DHT22;12011;47.422;15.018;2023-12-14T11:27:28;5.90;99.90
23669;DHT22;12011;47.422;15.018;2023-12-14T11:29:58;5.90;99.90
23669;DHT22;12011;47.422;15.018;2023-12-14T11:32:28;5.90;99.90
23669;DHT22;12011;47.422;15.018;2023-12-14T11:34:57;6.00;99.90
23669;DHT22;12011;47.422;15.018;2023-12-14T11:37:29;6.00;99.90
23669;DHT22;12011;47.422;15.018;2023-12-14T11:40:01;6.10;99.90
23669;DHT22;12011;47.422;15.018;2023-12-14T11:42:31;6.00;99.90
23669;DHT22;12011;47.422;15.018;2023-12-14T11:45:00;5.90;99.90
23669;DHT22;12011;47.422;15.018;2023-12-14T11:47:30;5.80;99.90
23669;DHT22;12011;47.422;15.018;2023-12-14T11:49:59;5.70;99.90
23669;DHT22;12011;47.422;15.018;2023-12-14T11:52:32;5.70;99.90
23669;DHT22;12011;47.422;15.018;2023-12-14T11:55:01;6.70;99.90
23669;DHT22;12011;47.422;15.018;2023-12-14T11:57:31;6.10;99.90
23669;DHT22;12011;47.422;15.018;2023-12-14T12:00:00;6.10;99.90
23669;DHT22;12011;47.422;15.018;2023-12-14T12:02:31;6.00;99.90
23669;DHT22;12011;47.422;15.018;2023-12-14T12:05:01;6.10;99.90
23669;DHT22;12011;47.422;15.018;2023-12-14T12:07:34;6.10;99.90
23669;DHT22;12011;47.422;15.018;2023-12-14T12:10:05;6.30;99.90
23669;DHT22;12011;47.422;15.018;2023-12-14T12:12:36;5.80;99.90
23669;DHT22;12011;47.422;15.018;2023-12-14T12:15:06;5.80;99.90
23669;DHT22;12011;47.422;15.018;2023-12-14T12:17:36;5.80;99.90
23669;DHT22;12011;47.422;15.018;2023-12-14T12:20:07;5.70;99.90
23669;DHT22;12011;47.422;15.018;2023-12-14T12:22:40;5.50;99.90
23669;DHT22;12011;47.422;15.018;2023-12-14T12:25:09;5.40;99.90
23669;DHT22;12011;47.422;15.018;2023-12-14T12:27:39;5.30;99.90
23669;DHT22;12011;47.422;15.018;2023-12-14T12:30:09;5.30;99.90
23669;DHT22;12011;47.422;15.018;2023-12-14T12:32:41;5.40;99.90
23669;DHT22;12011;47.422;15.018;2023-12-14T12:35:10;5.40;99.90
23669;DHT22;12011;47.422;15.018;2023-12-14T12:37:42;5.20;99.90
23669;DHT22;12011;47.422;15.018;2023-12-14T12:40:12;5.10;99.90
23669;DHT22;12011;47.422;15.018;2023-12-14T12:42:45;5.20;99.90
23669;DHT22;12011;47.422;15.018;2023-12-14T12:45:17;5.20;99.90
23669;DHT22;12011;47.422;15.018;2023-12-14T12:47:48;5.10;99.90
23669;DHT22;12011;47.422;15.018;2023-12-14T12:50:17;5.10;99.90
23669;DHT22;12011;47.422;15.018;2023-12-14T12:52:50;4.90;99.90
23669;DHT22;12011;47.422;15.018;2023-12-14T12:55:20;5.00;99.90
23669;DHT22;12011;47.422;15.018;2023-12-14T12:57:49;5.10;99.90
23669;DHT22;12011;47.422;15.018;2023-12-14T13:00:19;5.20;99.90
23669;DHT22;12011;47.422;15.018;2023-12-14T13:02:49;5.00;99.90
23669;DHT22;12011;47.422;15.018;2023-12-14T13:05:18;4.70;99.90
23669;DHT22;12011;47.422;15.018;2023-12-14T13:07:52;4.80;99.90
23669;DHT22;12011;47.422;15.018;2023-12-14T13:10:23;4.60;99.90
23669;DHT22;12011;47.422;15.018;2023-12-14T13:12:53;4.60;99.90
23669;DHT22;12011;47.422;15.018;2023-12-14T13:15:23;4.60;99.90
23669;DHT22;12011;47.422;15.018;2023-12-14T13:17:55;4.70;99.90
23669;DHT22;12011;47.422;15.018;2023-12-14T13:20:24;4.60;99.90
23669;DHT22;12011;47.422;15.018;2023-12-14T13:22:56;4.40;99.90
23669;DHT22;12011;47.422;15.018;2023-12-14T13:25:26;4.10;99.90
23669;DHT22;12011;47.422;15.018;2023-12-14T13:27:55;4.00;99.90
23669;DHT22;12011;47.422;15.018;2023-12-14T13:30:25;4.10;99.90
23669;DHT22;12011;47.422;15.018;2023-12-14T13:32:55;4.10;99.90
23669;DHT22;12011;47.422;15.018;2023-12-14T13:35:25;4.10;99.90
23669;DHT22;12011;47.422;15.018;2023-12-14T13:37:57;4.00;99.90
23669;DHT22;12011;47.422;15.018;2023-12-14T13:40:26;4.00;99.90
23669;DHT22;12011;47.422;15.018;2023-12-14T13:42:56;4.00;99.90
23669;DHT22;12011;47.422;15.018;2023-12-14T13:45:29;3.90;99.90
23669;DHT22;12011;47.422;15.018;2023-12-14T13:47:59;3.80;99.90
23669;DHT22;12011;47.422;15.018;2023-12-14T13:50:29;3.60;99.90
23669;DHT22;12011;47.422;15.018;2023-12-14T13:53:01;3.50;99.90
23669;DHT22;12011;47.422;15.018;2023-12-14T13:55:30;3.40;99.90
23669;DHT22;12011;47.422;15.018;2023-12-14T13:58:00;3.50;99.90
23669;DHT22;12011;47.422;15.018;2023-12-14T14:00:29;3.50;99.90
23669;DHT22;12011;47.422;15.018;2023-12-14T14:03:00;3.70;99.90
23669;DHT22;12011;47.422;15.018;2023-12-14T14:05:30;3.80;99.90
23669;DHT22;12011;47.422;15.018;2023-12-14T14:08:02;3.90;99.90
23669;DHT22;12011;47.422;15.018;2023-12-14T14:10:32;3.80;99.90
23669;DHT22;12011;47.422;15.018;2023-12-14T14:13:02;3.70;99.90
23669;DHT22;12011;47.422;15.018;2023-12-14T14:15:31;3.70;99.90
23669;DHT22;12011;47.422;15.018;2023-12-14T14:18:01;3.80;99.90
23669;DHT22;12011;47.422;15.018;2023-12-14T14:20:30;3.80;99.90
23669;DHT22;12011;47.422;15.018;2023-12-14T14:23:02;3.80;99.90
23669;DHT22;12011;47.422;15.018;2023-12-14T14:25:31;3.70;99.90
23669;DHT22;12011;47.422;15.018;2023-12-14T14:28:01;3.70;99.90
23669;DHT22;12011;47.422;15.018;2023-12-14T14:30:31;3.50;99.90
23669;DHT22;12011;47.422;15.018;2023-12-14T14:33:00;3.50;99.90
23669;DHT22;12011;47.422;15.018;2023-12-14T14:35:30;3.50;99.90
23669;DHT22;12011;47.422;15.018;2023-12-14T14:38:05;3.50;99.90
23669;DHT22;12011;47.422;15.018;2023-12-14T14:40:35;3.50;99.90
23669;DHT22;12011;47.422;15.018;2023-12-14T14:43:04;3.50;99.90
23669;DHT22;12011;47.422;15.018;2023-12-14T14:45:34;3.40;99.90
23669;DHT22;12011;47.422;15.018;2023-12-14T14:48:04;3.30;99.90
23669;DHT22;12011;47.422;15.018;2023-12-14T14:50:34;3.10;99.90
23669;DHT22;12011;47.422;15.018;2023-12-14T14:53:06;3.00;99.90
23669;DHT22;12011;47.422;15.018;2023-12-14T14:55:36;2.90;99.90
23669;DHT22;12011;47.422;15.018;2023-12-14T14:58:05;2.90;99.90
23669;DHT22;12011;47.422;15.018;2023-12-14T15:00:35;2.90;99.90
23669;DHT22;12011;47.422;15.018;2023-12-14T15:03:05;2.80;99.90
23669;DHT22;12011;47.422;15.018;2023-12-14T15:05:35;2.70;99.90
23669;DHT22;12011;47.422;15.018;2023-12-14T15:08:08;2.70;99.90
23669;DHT22;12011;47.422;15.018;2023-12-14T15:10:39;2.60;99.90
23669;DHT22;12011;47.422;15.018;2023-12-14T15:13:09;2.60;99.90
23669;DHT22;12011;47.422;15.018;2023-12-14T15:15:38;2.60;99.90
23669;DHT22;12011;47.422;15.018;2023-12-14T15:18:07;2.50;99.90
23669;DHT22;12011;47.422;15.018;2023-12-14T15:20:38;2.50;99.90
23669;DHT22;12011;47.422;15.018;2023-12-14T15:23:10;2.30;99.90
23669;DHT22;12011;47.422;15.018;2023-12-14T15:25:40;2.30;99.90
23669;DHT22;12011;47.422;15.018;2023-12-14T15:28:10;2.30;99.90
23669;DHT22;12011;47.422;15.018;2023-12-14T15:30:39;2.70;99.90
23669;DHT22;12011;47.422;15.018;2023-12-14T15:33:08;2.80;99.90
23669;DHT22;12011;47.422;15.018;2023-12-14T15:35:38;2.90;99.90
23669;DHT22;12011;47.422;15.018;2023-12-14T15:38:10;2.60;99.90
23669;DHT22;12011;47.422;15.018;2023-12-14T15:40:40;2.60;99.90
23669;DHT22;12011;47.422;15.018;2023-12-14T15:43:09;2.80;99.90
23669;DHT22;12011;47.422;15.018;2023-12-14T15:45:40;2.70;99.90
23669;DHT22;12011;47.422;15.018;2023-12-14T15:48:09;2.70;99.90
23669;DHT22;12011;47.422;15.018;2023-12-14T15:50:39;2.70;99.90
23669;DHT22;12011;47.422;15.018;2023-12-14T15:53:11;2.60;99.90
23669;DHT22;12011;47.422;15.018;2023-12-14T15:55:40;2.50;99.90
23669;DHT22;12011;47.422;15.018;2023-12-14T15:58:09;2.60;99.90
23669;DHT22;12011;47.422;15.018;2023-12-14T16:00:39;2.50;99.90
23669;DHT22;12011;47.422;15.018;2023-12-14T16:03:09;2.30;99.90
23669;DHT22;12011;47.422;15.018;2023-12-14T16:05:38;2.40;99.90
23669;DHT22;12011;47.422;15.018;2023-12-14T16:08:07;2.40;99.90
23669;DHT22;12011;47.422;15.018;2023-12-14T16:10:40;2.30;99.90
23669;DHT22;12011;47.422;15.018;2023-12-14T16:13:13;2.40;99.90
23669;DHT22;12011;47.422;15.018;2023-12-14T16:15:43;2.50;99.90
23669;DHT22;12011;47.422;15.018;2023-12-14T16:18:12;2.20;99.90
23669;DHT22;12011;47.422;15.018;2023-12-14T16:20:42;2.40;99.90
23669;DHT22;12011;47.422;15.018;2023-12-14T16:23:16;2.00;99.90
23669;DHT22;12011;47.422;15.018;2023-12-14T16:25:45;2.40;99.90
23669;DHT22;12011;47.422;15.018;2023-12-14T16:28:15;2.30;99.90
23669;DHT22;12011;47.422;15.018;2023-12-14T16:30:46;2.20;99.90
23669;DHT22;12011;47.422;15.018;2023-12-14T16:33:16;2.40;99.90
23669;DHT22;12011;47.422;15.018;2023-12-14T16:35:45;2.20;99.90
23669;DHT22;12011;47.422;15.018;2023-12-14T16:38:17;2.20;99.90
23669;DHT22;12011;47.422;15.018;2023-12-14T16:40:47;2.00;99.90
23669;DHT22;12011;47.422;15.018;2023-12-14T16:43:17;2.10;99.90
23669;DHT22;12011;47.422;15.018;2023-12-14T16:45:48;2.00;99.90
23669;DHT22;12011;47.422;15.018;2023-12-14T16:48:20;2.10;99.90
23669;DHT22;12011;47.422;15.018;2023-12-14T16:50:49;2.50;99.90
23669;DHT22;12011;47.422;15.018;2023-12-14T16:53:24;2.40;99.90